| Date | Time | Temp. (oF) | Dew Point (oF) | Rel. Hum. (%) | Press. (in.) | Wind Dir. | Wind Speed (mph) | Hourly Rainfall (in.) |
|
|---|---|---|---|---|---|---|---|---|---|
| 1 | 12/16 | 00:00 | 48 | 36 | 64 | 29.88 | WNW | 2 | 0.00 |
| 2 | 12/15 | 23:00 | 48 | 36 | 64 | 29.87 | NNW | 6 | 0.00 |
| 3 | 12/15 | 22:00 | 47 | 35 | 64 | 29.85 | W | 9 | 0.00 |
| 4 | 12/15 | 21:00 | 47 | 35 | 63 | 29.84 | WSW | 4 | 0.00 |
| 5 | 12/15 | 20:00 | 47 | 35 | 64 | 29.81 | NNE | 6 | 0.00 |
| 6 | 12/15 | 19:00 | 47 | 35 | 63 | 29.78 | WNW | 8 | 0.00 |
| 7 | 12/15 | 18:00 | 48 | 35 | 61 | 29.76 | NNW | 7 | 0.00 |
| 8 | 12/15 | 17:00 | 50 | 36 | 59 | 29.73 | NNW | 9 | 0.00 |
| 9 | 12/15 | 16:00 | 53 | 36 | 53 | 29.69 | WNW | 12 | 0.00 |
| 10 | 12/15 | 15:00 | 55 | 36 | 49 | 29.65 | N | 13 | 0.00 |
| 11 | 12/15 | 14:00 | 56 | 36 | 48 | 29.63 | W | 12 | 0.00 |
| 12 | 12/15 | 13:00 | 57 | 38 | 50 | 29.63 | NNW | 15 | 0.00 |
| 13 | 12/15 | 12:00 | 55 | 37 | 52 | 29.62 | WNW | 13 | 0.00 |
| 14 | 12/15 | 11:00 | 55 | 39 | 57 | 29.61 | W | 5 | 0.00 |
| 15 | 12/15 | 10:00 | 55 | 42 | 62 | 29.61 | WNW | 11 | 0.00 |
| 16 | 12/15 | 09:00 | 54 | 42 | 66 | 29.58 | N | 6 | 0.00 |
| 17 | 12/15 | 08:00 | 53 | 41 | 66 | 29.56 | NNW | 7 | 0.00 |
| 18 | 12/15 | 07:00 | 53 | 40 | 63 | 29.52 | W | 2 | 0.00 |
| 19 | 12/15 | 06:00 | 55 | 40 | 59 | 29.51 | W | 3 | 0.00 |
| 20 | 12/15 | 05:00 | 57 | 44 | 64 | 29.47 | WNW | 14 | 0.00 |
| 21 | 12/15 | 04:00 | 58 | 47 | 68 | 29.44 | WSW | 5 | 0.00 |
| 22 | 12/15 | 03:00 | 59 | 48 | 68 | 29.41 | WSW | 8 | 0.00 |
| 23 | 12/15 | 02:00 | 59 | 53 | 81 | 29.39 | WSW | 2 | 0.00 |
| 24 | 12/15 | 01:00 | 60 | 56 | 88 | 29.38 | WNW | 3 | 0.06 |